createdAt,value
2017-09-15T00:00:28.191Z,1003.66
2017-09-15T00:01:28.166Z,1003.63
2017-09-15T00:02:28.152Z,1003.65
2017-09-15T00:03:28.126Z,1003.64
2017-09-15T00:04:28.107Z,1003.69
2017-09-15T00:05:28.084Z,1003.69
2017-09-15T00:06:28.068Z,1003.72
2017-09-15T00:07:28.051Z,1003.72
2017-09-15T00:08:28.032Z,1003.74
2017-09-15T00:09:28.011Z,1003.7
2017-09-15T00:10:27.992Z,1003.71
2017-09-15T00:11:28.231Z,1003.74
2017-09-15T00:12:27.959Z,1003.8
2017-09-15T00:13:27.938Z,1003.8
2017-09-15T00:14:27.930Z,1003.8
2017-09-15T00:15:27.900Z,1003.85
2017-09-15T00:16:27.878Z,1003.82
2017-09-15T00:17:27.861Z,1003.79
2017-09-15T00:18:27.839Z,1003.82
2017-09-15T00:19:27.820Z,1003.81
2017-09-15T00:20:27.799Z,1003.81
2017-09-15T00:21:27.779Z,1003.82
2017-09-15T00:22:27.772Z,1003.85
2017-09-15T00:23:27.749Z,1003.87
2017-09-15T00:24:27.726Z,1003.84
2017-09-15T00:25:27.709Z,1003.83
2017-09-15T00:26:27.689Z,1003.88
2017-09-15T00:27:27.669Z,1003.85
2017-09-15T00:28:27.646Z,1003.87
2017-09-15T00:29:27.630Z,1003.88
2017-09-15T00:30:27.619Z,1003.9
2017-09-15T00:31:27.591Z,1003.86
2017-09-15T00:32:27.581Z,1003.89
2017-09-15T00:33:27.554Z,1003.87
2017-09-15T00:34:27.540Z,1003.88
2017-09-15T00:35:27.528Z,1003.91
2017-09-15T00:36:27.497Z,1003.93
2017-09-15T00:37:27.479Z,1003.91
2017-09-15T00:38:27.458Z,1003.91
2017-09-15T00:39:27.439Z,1003.85
2017-09-15T00:40:27.424Z,1003.93
2017-09-15T00:41:27.401Z,1003.86
2017-09-15T00:42:27.387Z,1003.9
2017-09-15T00:43:27.366Z,1003.87
2017-09-15T00:44:27.346Z,1003.91
2017-09-15T00:45:27.329Z,1003.94
2017-09-15T00:46:27.310Z,1003.9
2017-09-15T00:47:27.288Z,1003.94
2017-09-15T00:48:27.269Z,1003.92
2017-09-15T00:49:27.250Z,1003.94
2017-09-15T00:50:27.229Z,1003.92
2017-09-15T00:51:27.212Z,1003.96
2017-09-15T00:52:27.198Z,1003.98
2017-09-15T00:53:27.174Z,1003.96
2017-09-15T00:54:27.160Z,1003.93
2017-09-15T00:55:27.136Z,1003.92
2017-09-15T00:56:27.121Z,1003.95
2017-09-15T00:57:27.101Z,1003.95
2017-09-15T00:58:27.081Z,1003.97
2017-09-15T00:59:27.055Z,1003.98
2017-09-15T01:00:27.038Z,1004
2017-09-15T01:01:27.019Z,1004.02
2017-09-15T01:02:26.999Z,1003.97
2017-09-15T01:03:26.985Z,1003.96
2017-09-15T01:04:26.961Z,1003.98
2017-09-15T01:05:26.945Z,1004
2017-09-15T01:06:26.921Z,1004.03
2017-09-15T01:07:26.905Z,1004.04
2017-09-15T01:08:26.890Z,1004.08
2017-09-15T01:09:26.869Z,1004.09
2017-09-15T01:10:26.847Z,1004.1
2017-09-15T01:11:26.833Z,1004.11
2017-09-15T01:12:26.808Z,1004.15
2017-09-15T01:13:26.789Z,1004.15
2017-09-15T01:14:26.769Z,1004.12
2017-09-15T01:15:26.751Z,1004.15
2017-09-15T01:16:26.779Z,1004.13
2017-09-15T01:17:26.713Z,1004.14
2017-09-15T01:18:26.690Z,1004.13
2017-09-15T01:19:26.676Z,1004.1
2017-09-15T01:20:26.661Z,1004.12
2017-09-15T01:21:26.639Z,1004.19
2017-09-15T01:22:26.613Z,1004.17
2017-09-15T01:23:26.599Z,1004.26
2017-09-15T01:24:26.581Z,1004.19
2017-09-15T01:25:26.558Z,1004.17
2017-09-15T01:26:26.538Z,1004.19
2017-09-15T01:27:26.519Z,1004.19
2017-09-15T01:28:26.498Z,1004.22
2017-09-15T01:29:26.479Z,1004.19
2017-09-15T01:30:26.471Z,1004.2
2017-09-15T01:31:26.449Z,1004.21
2017-09-15T01:32:26.428Z,1004.22
2017-09-15T01:33:26.418Z,1004.24
2017-09-15T01:34:26.390Z,1004.23
2017-09-15T01:35:26.371Z,1004.26
2017-09-15T01:36:26.350Z,1004.25
2017-09-15T01:37:26.332Z,1004.24
2017-09-15T01:38:26.311Z,1004.27
2017-09-15T01:39:26.289Z,1004.23
2017-09-15T01:40:26.270Z,1004.24
2017-09-15T01:41:26.250Z,1004.28
2017-09-15T01:42:26.240Z,1004.26
2017-09-15T01:43:26.219Z,1004.26
2017-09-15T01:44:26.200Z,1004.29
2017-09-15T01:45:26.174Z,1004.25
2017-09-15T01:46:26.158Z,1004.21
2017-09-15T01:47:26.133Z,1004.25
2017-09-15T01:48:26.112Z,1004.21
2017-09-15T01:49:26.096Z,1004.24
2017-09-15T01:50:26.079Z,1004.23
2017-09-15T01:51:26.055Z,1004.23
2017-09-15T01:52:26.038Z,1004.28
2017-09-15T01:53:26.019Z,1004.23
2017-09-15T01:54:25.997Z,1004.19
2017-09-15T01:55:25.975Z,1004.23
2017-09-15T01:56:25.959Z,1004.26
2017-09-15T01:57:25.939Z,1004.24
2017-09-15T01:58:25.920Z,1004.23
2017-09-15T01:59:25.905Z,1004.21
2017-09-15T02:00:25.883Z,1004.27
2017-09-15T02:01:25.867Z,1004.27
2017-09-15T02:02:25.844Z,1004.24
2017-09-15T02:03:25.827Z,1004.21
2017-09-15T02:04:25.809Z,1004.18
2017-09-15T02:05:25.789Z,1004.21
2017-09-15T02:06:25.764Z,1004.23
2017-09-15T02:07:25.751Z,1004.25
2017-09-15T02:08:25.728Z,1004.23
2017-09-15T02:09:25.712Z,1004.22
2017-09-15T02:10:25.688Z,1004.26
2017-09-15T02:11:25.671Z,1004.24
2017-09-15T02:12:25.652Z,1004.24
2017-09-15T02:13:25.628Z,1004.23
2017-09-15T02:14:25.608Z,1004.18
2017-09-15T02:15:25.592Z,1004.19
2017-09-15T02:16:25.578Z,1004.18
2017-09-15T02:17:25.551Z,1004.19
2017-09-15T02:18:25.535Z,1004.19
2017-09-15T02:19:25.510Z,1004.19
2017-09-15T02:20:25.497Z,1004.18
2017-09-15T02:21:25.475Z,1004.22
2017-09-15T02:22:25.459Z,1004.17
2017-09-15T02:23:25.434Z,1004.17
2017-09-15T02:24:25.417Z,1004.2
2017-09-15T02:25:25.399Z,1004.2
2017-09-15T02:26:25.381Z,1004.22
2017-09-15T02:27:25.360Z,1004.23
2017-09-15T02:28:25.338Z,1004.25
2017-09-15T02:29:25.322Z,1004.24
2017-09-15T02:30:25.298Z,1004.19
2017-09-15T02:31:25.295Z,1004.3
2017-09-15T02:32:25.260Z,1004.21
2017-09-15T02:33:25.241Z,1004.3
2017-09-15T02:34:25.222Z,1004.25
2017-09-15T02:35:25.199Z,1004.25
2017-09-15T02:36:25.190Z,1004.28
2017-09-15T02:37:25.169Z,1004.25
2017-09-15T02:38:25.150Z,1004.32
2017-09-15T02:39:25.128Z,1004.29
2017-09-15T02:40:25.110Z,1004.36
2017-09-15T02:41:25.090Z,1004.34
2017-09-15T02:42:25.063Z,1004.3
2017-09-15T02:43:25.050Z,1004.38
2017-09-15T02:44:25.035Z,1004.37
2017-09-15T02:45:25.009Z,1004.4
2017-09-15T02:46:24.989Z,1004.41
2017-09-15T02:47:24.968Z,1004.41
2017-09-15T02:48:24.950Z,1004.44
2017-09-15T02:49:24.931Z,1004.43
2017-09-15T02:50:24.912Z,1004.39
2017-09-15T02:51:24.889Z,1004.4
2017-09-15T02:52:24.873Z,1004.45
2017-09-15T02:53:24.860Z,1004.39
2017-09-15T02:54:24.841Z,1004.45
2017-09-15T02:55:24.818Z,1004.4
2017-09-15T02:56:24.799Z,1004.4
2017-09-15T02:57:24.782Z,1004.42
2017-09-15T02:58:24.759Z,1004.44
2017-09-15T02:59:24.738Z,1004.45
2017-09-15T03:00:24.715Z,1004.42
2017-09-15T03:01:24.702Z,1004.46
2017-09-15T03:02:24.678Z,1004.43
2017-09-15T03:03:24.657Z,1004.44
2017-09-15T03:04:24.639Z,1004.47
2017-09-15T03:05:24.640Z,1004.46
2017-09-15T03:06:24.598Z,1004.43
2017-09-15T03:07:24.585Z,1004.4
2017-09-15T03:08:24.561Z,1004.42
2017-09-15T03:09:24.549Z,1004.45
2017-09-15T03:10:24.526Z,1004.41
2017-09-15T03:11:24.502Z,1004.41
2017-09-15T03:12:24.488Z,1004.4
2017-09-15T03:13:24.464Z,1004.36
2017-09-15T03:14:24.448Z,1004.43
2017-09-15T03:15:24.421Z,1004.45
2017-09-15T03:16:24.411Z,1004.41
2017-09-15T03:17:24.392Z,1004.38
2017-09-15T03:18:24.369Z,1004.41
2017-09-15T03:19:24.349Z,1004.37
2017-09-15T03:20:24.329Z,1004.41
2017-09-15T03:21:24.312Z,1004.39
2017-09-15T03:22:24.289Z,1004.4
2017-09-15T03:23:24.269Z,1004.38
2017-09-15T03:24:24.261Z,1004.36
2017-09-15T03:25:24.230Z,1004.32
2017-09-15T03:26:24.212Z,1004.35
2017-09-15T03:27:24.198Z,1004.26
2017-09-15T03:28:24.180Z,1004.34
2017-09-15T03:29:24.153Z,1004.33
2017-09-15T03:30:24.141Z,1004.3
2017-09-15T03:31:24.113Z,1004.29
2017-09-15T03:32:24.099Z,1004.26
2017-09-15T03:33:24.079Z,1004.27
2017-09-15T03:34:24.056Z,1004.28
2017-09-15T03:35:24.040Z,1004.27
2017-09-15T03:36:24.019Z,1004.31
2017-09-15T03:37:24.000Z,1004.3
2017-09-15T03:38:23.980Z,1004.27
2017-09-15T03:39:23.960Z,1004.25
2017-09-15T03:40:23.939Z,1004.2
2017-09-15T03:41:23.920Z,1004.2
2017-09-15T03:42:23.902Z,1004.18
2017-09-15T03:43:23.881Z,1004.21
2017-09-15T03:44:23.866Z,1004.22
2017-09-15T03:45:23.840Z,1004.19
2017-09-15T03:46:23.821Z,1004.17
2017-09-15T03:47:23.803Z,1004.21
2017-09-15T03:48:23.783Z,1004.2
2017-09-15T03:49:23.773Z,1004.23
2017-09-15T03:50:23.749Z,1004.26
2017-09-15T03:51:23.728Z,1004.24
2017-09-15T03:52:23.708Z,1004.25
2017-09-15T03:53:23.687Z,1004.28
2017-09-15T03:54:23.670Z,1004.3
2017-09-15T03:55:23.643Z,1004.31
2017-09-15T03:56:23.676Z,1004.33
2017-09-15T03:57:23.606Z,1004.35
2017-09-15T03:58:23.585Z,1004.32
2017-09-15T03:59:23.569Z,1004.3
2017-09-15T04:00:23.550Z,1004.36
2017-09-15T04:01:23.529Z,1004.35
2017-09-15T04:02:23.510Z,1004.39
2017-09-15T04:03:23.490Z,1004.33
2017-09-15T04:04:23.470Z,1004.33
2017-09-15T04:05:23.452Z,1004.33
2017-09-15T04:06:23.432Z,1004.33
2017-09-15T04:07:23.411Z,1004.31
2017-09-15T04:08:23.390Z,1004.36
2017-09-15T04:09:23.373Z,1004.37
2017-09-15T04:10:23.351Z,1004.39
2017-09-15T04:11:23.340Z,1004.32
2017-09-15T04:12:23.321Z,1004.34
2017-09-15T04:13:23.296Z,1004.37
2017-09-15T04:14:23.279Z,1004.33
2017-09-15T04:15:23.260Z,1004.31
2017-09-15T04:16:23.233Z,1004.33
2017-09-15T04:17:23.219Z,1004.3
2017-09-15T04:18:23.193Z,1004.35
2017-09-15T04:19:23.179Z,1004.35
2017-09-15T04:20:23.158Z,1004.35
2017-09-15T04:21:23.139Z,1004.35
2017-09-15T04:22:23.116Z,1004.38
2017-09-15T04:23:23.099Z,1004.44
2017-09-15T04:24:23.075Z,1004.44
2017-09-15T04:25:23.061Z,1004.48
2017-09-15T04:26:23.042Z,1004.43
2017-09-15T04:27:23.025Z,1004.48
2017-09-15T04:28:22.998Z,1004.45
2017-09-15T04:29:22.979Z,1004.49
2017-09-15T04:30:22.958Z,1004.51
2017-09-15T04:31:22.940Z,1004.52
2017-09-15T04:32:22.919Z,1004.48
2017-09-15T04:33:22.900Z,1004.51
2017-09-15T04:34:22.885Z,1004.49
2017-09-15T04:35:22.869Z,1004.5
2017-09-15T04:36:22.843Z,1004.47
2017-09-15T04:37:22.821Z,1004.48
2017-09-15T04:38:22.806Z,1004.48
2017-09-15T04:39:22.790Z,1004.5
2017-09-15T04:40:22.768Z,1004.45
2017-09-15T04:41:22.751Z,1004.48
2017-09-15T04:42:22.727Z,1004.49
2017-09-15T04:43:22.703Z,1004.49
2017-09-15T04:44:22.685Z,1004.51
2017-09-15T04:45:22.667Z,1004.49
2017-09-15T04:46:22.647Z,1004.53
2017-09-15T04:47:22.623Z,1004.54
2017-09-15T04:48:22.609Z,1004.56
2017-09-15T04:49:22.587Z,1004.57
2017-09-15T04:50:22.571Z,1004.56
2017-09-15T04:51:22.547Z,1004.6
2017-09-15T04:52:22.542Z,1004.59
2017-09-15T04:53:22.510Z,1004.53
2017-09-15T04:54:22.489Z,1004.56
2017-09-15T04:55:22.466Z,1004.56
2017-09-15T04:56:22.453Z,1004.53
2017-09-15T04:57:22.431Z,1004.56
2017-09-15T04:58:22.408Z,1004.49
2017-09-15T04:59:22.389Z,1004.5
2017-09-15T05:00:22.371Z,1004.48
2017-09-15T05:01:22.349Z,1004.5
2017-09-15T05:02:22.328Z,1004.48
2017-09-15T05:03:22.311Z,1004.54
2017-09-15T05:04:22.289Z,1004.48
2017-09-15T05:05:22.269Z,1004.52
2017-09-15T05:06:22.252Z,1004.47
2017-09-15T05:07:22.241Z,1004.47
2017-09-15T05:08:22.211Z,1004.54
2017-09-15T05:09:22.189Z,1004.53
2017-09-15T05:10:22.174Z,1004.53
2017-09-15T05:11:22.155Z,1004.52
2017-09-15T05:12:22.139Z,1004.54
2017-09-15T05:13:22.124Z,1004.5
2017-09-15T05:14:22.099Z,1004.51
2017-09-15T05:15:22.079Z,1004.53
2017-09-15T05:16:22.059Z,1004.52
2017-09-15T05:17:22.035Z,1004.49
2017-09-15T05:18:22.019Z,1004.46
2017-09-15T05:19:22.001Z,1004.46
2017-09-15T05:20:21.978Z,1004.44
2017-09-15T05:21:21.960Z,1004.47
2017-09-15T05:22:21.942Z,1004.47
2017-09-15T05:23:21.919Z,1004.44
2017-09-15T05:24:21.900Z,1004.43
2017-09-15T05:25:21.878Z,1004.41
2017-09-15T05:26:21.859Z,1004.46
2017-09-15T05:27:21.839Z,1004.42
2017-09-15T05:28:21.814Z,1004.45
2017-09-15T05:29:21.797Z,1004.41
2017-09-15T05:30:21.781Z,1004.4
2017-09-15T05:31:21.761Z,1004.42
2017-09-15T05:32:21.741Z,1004.42
2017-09-15T05:33:21.721Z,1004.4
2017-09-15T05:34:21.698Z,1004.4
2017-09-15T05:35:21.690Z,1004.4
2017-09-15T05:36:21.660Z,1004.38
2017-09-15T05:37:21.642Z,1004.39
2017-09-15T05:38:21.620Z,1004.41
2017-09-15T05:39:21.602Z,1004.35
2017-09-15T05:40:21.586Z,1004.33
2017-09-15T05:41:21.565Z,1004.33
2017-09-15T05:42:21.552Z,1004.32
2017-09-15T05:43:21.532Z,1004.3
2017-09-15T05:44:21.511Z,1004.29
2017-09-15T05:45:21.485Z,1004.31
2017-09-15T05:46:21.513Z,1004.29
2017-09-15T05:47:21.452Z,1004.3
2017-09-15T05:48:21.427Z,1004.3
2017-09-15T05:49:21.405Z,1004.29
2017-09-15T05:50:21.393Z,1004.32
2017-09-15T05:51:21.367Z,1004.32
2017-09-15T05:52:21.370Z,1004.32
2017-09-15T05:53:21.329Z,1004.31
2017-09-15T05:54:21.364Z,1004.29
2017-09-15T05:55:21.289Z,1004.3
2017-09-15T05:56:21.271Z,1004.32
2017-09-15T05:57:21.247Z,1004.3
2017-09-15T05:58:21.231Z,1004.29
2017-09-15T05:59:21.208Z,1004.28
2017-09-15T06:00:21.191Z,1004.27
2017-09-15T06:01:21.169Z,1004.26
2017-09-15T06:02:21.152Z,1004.29
2017-09-15T06:03:21.132Z,1004.28
2017-09-15T06:04:21.107Z,1004.31
2017-09-15T06:05:21.099Z,1004.26
2017-09-15T06:06:21.126Z,1004.29
2017-09-15T06:07:21.051Z,1004.28
2017-09-15T06:08:21.030Z,1004.26
2017-09-15T06:09:21.013Z,1004.24
2017-09-15T06:10:20.993Z,1004.2
2017-09-15T06:11:20.981Z,1004.23
2017-09-15T06:12:21.006Z,1004.22
2017-09-15T06:13:20.932Z,1004.25
2017-09-15T06:14:20.916Z,1004.24
2017-09-15T06:15:20.892Z,1004.24
2017-09-15T06:16:20.929Z,1004.21
2017-09-15T06:17:20.862Z,1004.25
2017-09-15T06:18:20.836Z,1004.21
2017-09-15T06:19:20.815Z,1004.26
2017-09-15T06:20:20.801Z,1004.27
2017-09-15T06:21:20.775Z,1004.24
2017-09-15T06:22:20.759Z,1004.23
2017-09-15T06:23:20.738Z,1004.19
2017-09-15T06:24:20.718Z,1004.21
2017-09-15T06:25:20.696Z,1004.22
2017-09-15T06:26:20.682Z,1004.21
2017-09-15T06:27:20.660Z,1004.26
2017-09-15T06:28:20.640Z,1004.25
2017-09-15T06:29:20.619Z,1004.25
2017-09-15T06:30:20.601Z,1004.22
2017-09-15T06:31:20.579Z,1004.2
2017-09-15T06:32:20.562Z,1004.17
2017-09-15T06:33:20.546Z,1004.16
2017-09-15T06:34:20.530Z,1004.16
2017-09-15T06:35:20.510Z,1004.16
2017-09-15T06:36:20.488Z,1004.16
2017-09-15T06:37:20.470Z,1004.15
2017-09-15T06:38:20.455Z,1004.18
2017-09-15T06:39:20.428Z,1004.14
2017-09-15T06:40:20.410Z,1004.12
2017-09-15T06:41:20.391Z,1004.14
2017-09-15T06:42:20.383Z,1004.14
2017-09-15T06:43:20.356Z,1004.17
2017-09-15T06:44:20.334Z,1004.19
2017-09-15T06:45:20.317Z,1004.23
2017-09-15T06:46:20.294Z,1004.19
2017-09-15T06:47:20.276Z,1004.21
2017-09-15T06:48:20.267Z,1004.16
2017-09-15T06:49:20.241Z,1004.23
2017-09-15T06:50:20.222Z,1004.23
2017-09-15T06:51:20.204Z,1004.21
2017-09-15T06:52:20.180Z,1004.27
2017-09-15T06:53:20.162Z,1004.24
2017-09-15T06:54:20.149Z,1004.28
2017-09-15T06:55:20.131Z,1004.23
2017-09-15T06:56:20.108Z,1004.21
2017-09-15T06:57:20.097Z,1004.24
2017-09-15T06:58:20.070Z,1004.25
2017-09-15T06:59:20.050Z,1004.28
2017-09-15T07:00:20.030Z,1004.24
2017-09-15T07:01:20.009Z,1004.21
2017-09-15T07:02:19.992Z,1004.22
2017-09-15T07:03:19.973Z,1004.25
2017-09-15T07:04:19.956Z,1004.23
2017-09-15T07:05:19.937Z,1004.23
2017-09-15T07:06:19.919Z,1004.22
2017-09-15T07:07:19.900Z,1004.21
2017-09-15T07:08:19.882Z,1004.27
2017-09-15T07:09:19.864Z,1004.22
2017-09-15T07:10:19.840Z,1004.22
2017-09-15T07:11:19.822Z,1004.25
2017-09-15T07:12:19.812Z,1004.23
2017-09-15T07:13:19.786Z,1004.27
2017-09-15T07:14:19.765Z,1004.27
2017-09-15T07:15:19.751Z,1004.29
2017-09-15T07:16:19.726Z,1004.31
2017-09-15T07:17:19.712Z,1004.33
2017-09-15T07:18:19.684Z,1004.36
2017-09-15T07:19:19.670Z,1004.32
2017-09-15T07:20:19.654Z,1004.32
2017-09-15T07:21:19.642Z,1004.34
2017-09-15T07:22:19.609Z,1004.33
2017-09-15T07:23:19.598Z,1004.35
2017-09-15T07:24:19.579Z,1004.37
2017-09-15T07:25:19.556Z,1004.39
2017-09-15T07:26:19.538Z,1004.42
2017-09-15T07:27:19.527Z,1004.4
2017-09-15T07:28:19.500Z,1004.43
2017-09-15T07:29:19.477Z,1004.42
2017-09-15T07:30:19.461Z,1004.43
2017-09-15T07:31:19.439Z,1004.42
2017-09-15T07:32:19.419Z,1004.45
2017-09-15T07:33:19.400Z,1004.48
2017-09-15T07:34:19.384Z,1004.49
2017-09-15T07:35:19.363Z,1004.43
2017-09-15T07:36:19.351Z,1004.43
2017-09-15T07:37:19.331Z,1004.42
2017-09-15T07:38:19.317Z,1004.42
2017-09-15T07:39:19.286Z,1004.43
2017-09-15T07:40:19.270Z,1004.5
2017-09-15T07:41:19.257Z,1004.51
2017-09-15T07:42:19.230Z,1004.54
2017-09-15T07:43:19.220Z,1004.57
2017-09-15T07:44:19.196Z,1004.55
2017-09-15T07:45:19.181Z,1004.63
2017-09-15T07:46:19.156Z,1004.61
2017-09-15T07:47:19.139Z,1004.66
2017-09-15T07:48:19.120Z,1004.66
2017-09-15T07:49:19.099Z,1004.67
2017-09-15T07:50:19.080Z,1004.7
2017-09-15T07:51:19.068Z,1004.75
2017-09-15T07:52:19.048Z,1004.71
2017-09-15T07:53:19.032Z,1004.75
2017-09-15T07:54:19.014Z,1004.76
2017-09-15T07:55:18.989Z,1004.79
2017-09-15T07:56:18.973Z,1004.8
2017-09-15T07:57:18.972Z,1004.79
2017-09-15T07:58:18.928Z,1004.79
2017-09-15T07:59:18.909Z,1004.78
2017-09-15T08:00:18.890Z,1004.83
2017-09-15T08:01:18.880Z,1004.83
2017-09-15T08:02:18.860Z,1004.82
2017-09-15T08:03:18.840Z,1004.83
2017-09-15T08:04:18.814Z,1004.88
2017-09-15T08:05:18.801Z,1004.91
2017-09-15T08:06:18.779Z,1004.84
2017-09-15T08:07:18.762Z,1004.85
2017-09-15T08:08:18.741Z,1004.88
2017-09-15T08:09:18.720Z,1004.84
2017-09-15T08:10:18.705Z,1004.89
2017-09-15T08:11:18.681Z,1004.9
2017-09-15T08:12:18.668Z,1004.88
2017-09-15T08:13:18.648Z,1004.9
2017-09-15T08:14:18.625Z,1004.9
2017-09-15T08:15:18.605Z,1004.87
2017-09-15T08:16:18.591Z,1004.86
2017-09-15T08:17:18.571Z,1004.88
2017-09-15T08:18:18.552Z,1004.89
2017-09-15T08:19:18.529Z,1004.9
2017-09-15T08:20:18.513Z,1004.91
2017-09-15T08:21:18.503Z,1004.92
2017-09-15T08:22:18.474Z,1004.93
2017-09-15T08:23:18.460Z,1004.93
2017-09-15T08:24:18.434Z,1004.94
2017-09-15T08:25:18.418Z,1004.96
2017-09-15T08:26:18.403Z,1004.93
2017-09-15T08:27:18.379Z,1004.92
2017-09-15T08:28:18.363Z,1004.98
2017-09-15T08:29:18.343Z,1004.93
2017-09-15T08:30:18.341Z,1004.97
2017-09-15T08:31:18.312Z,1004.96
2017-09-15T08:32:18.290Z,1004.99
2017-09-15T08:33:18.271Z,1004.99
2017-09-15T08:34:18.250Z,1004.96
2017-09-15T08:35:18.240Z,1004.97
2017-09-15T08:36:18.215Z,1004.94
2017-09-15T08:37:18.199Z,1004.94
2017-09-15T08:38:18.181Z,1004.96
2017-09-15T08:39:18.162Z,1004.97
2017-09-15T08:40:18.145Z,1005
2017-09-15T08:41:18.120Z,1004.96
2017-09-15T08:42:18.101Z,1004.97
2017-09-15T08:43:18.083Z,1004.96
2017-09-15T08:44:18.068Z,1004.93
2017-09-15T08:45:18.043Z,1004.91
2017-09-15T08:46:18.026Z,1004.92
2017-09-15T08:47:18.013Z,1004.94
2017-09-15T08:48:17.993Z,1004.93
2017-09-15T08:49:17.980Z,1004.91
2017-09-15T08:50:17.960Z,1004.89
2017-09-15T08:51:17.950Z,1004.85
2017-09-15T08:52:17.919Z,1004.86
2017-09-15T08:53:17.902Z,1004.87
2017-09-15T08:54:17.884Z,1004.88
2017-09-15T08:55:17.869Z,1004.86
2017-09-15T08:56:17.850Z,1004.81
2017-09-15T08:57:17.831Z,1004.81
2017-09-15T08:58:17.810Z,1004.82
2017-09-15T08:59:17.815Z,1004.79
2017-09-15T09:00:17.776Z,1004.82
2017-09-15T09:01:17.760Z,1004.82
2017-09-15T09:02:17.742Z,1004.76
2017-09-15T09:03:17.721Z,1004.74
2017-09-15T09:04:17.700Z,1004.73
2017-09-15T09:05:17.699Z,1004.75
2017-09-15T09:06:17.670Z,1004.74
2017-09-15T09:07:17.650Z,1004.7
2017-09-15T09:08:17.633Z,1004.68
2017-09-15T09:09:17.613Z,1004.63
2017-09-15T09:10:17.602Z,1004.72
2017-09-15T09:11:17.583Z,1004.68
2017-09-15T09:12:17.560Z,1004.68
2017-09-15T09:13:17.539Z,1004.65
2017-09-15T09:14:17.521Z,1004.68
2017-09-15T09:15:17.509Z,1004.72
2017-09-15T09:16:17.486Z,1004.65
2017-09-15T09:17:17.469Z,1004.64
2017-09-15T09:18:17.451Z,1004.58
2017-09-15T09:19:17.431Z,1004.61
2017-09-15T09:20:17.421Z,1004.54
2017-09-15T09:21:17.409Z,1004.52
2017-09-15T09:22:17.390Z,1004.48
2017-09-15T09:23:17.361Z,1004.51
2017-09-15T09:24:17.350Z,1004.51
2017-09-15T09:25:17.331Z,1004.43
2017-09-15T09:26:17.310Z,1004.42
2017-09-15T09:27:17.300Z,1004.45
2017-09-15T09:28:17.278Z,1004.42
2017-09-15T09:29:17.260Z,1004.4
2017-09-15T09:30:17.238Z,1004.39
2017-09-15T09:31:17.221Z,1004.42
2017-09-15T09:32:17.206Z,1004.41
2017-09-15T09:33:17.189Z,1004.45
2017-09-15T09:34:17.177Z,1004.4
2017-09-15T09:35:17.150Z,1004.46
2017-09-15T09:36:17.139Z,1004.42
2017-09-15T09:37:17.111Z,1004.46
2017-09-15T09:38:17.100Z,1004.43
2017-09-15T09:39:17.079Z,1004.48
2017-09-15T09:40:17.060Z,1004.48
2017-09-15T09:41:17.050Z,1004.43
2017-09-15T09:42:17.026Z,1004.42
2017-09-15T09:43:17.009Z,1004.44
2017-09-15T09:44:16.998Z,1004.36
2017-09-15T09:45:16.982Z,1004.39
2017-09-15T09:46:16.960Z,1004.46
2017-09-15T09:47:16.949Z,1004.43
2017-09-15T09:48:16.924Z,1004.45
2017-09-15T09:49:16.909Z,1004.41
2017-09-15T09:50:16.889Z,1004.42
2017-09-15T09:51:16.879Z,1004.47
2017-09-15T09:52:16.862Z,1004.48
2017-09-15T09:53:16.851Z,1004.55
2017-09-15T09:54:16.833Z,1004.47
2017-09-15T09:55:16.809Z,1004.52
2017-09-15T09:56:16.797Z,1004.5
2017-09-15T09:57:16.781Z,1004.53
2017-09-15T09:58:16.768Z,1004.53
2017-09-15T09:59:16.752Z,1004.52
2017-09-15T10:00:16.733Z,1004.57
2017-09-15T10:01:16.720Z,1004.53
2017-09-15T10:02:16.704Z,1004.53
2017-09-15T10:03:16.684Z,1004.56
2017-09-15T10:04:16.674Z,1004.54
2017-09-15T10:05:16.651Z,1004.48
2017-09-15T10:06:16.883Z,1004.48
2017-09-15T10:07:16.643Z,1004.49
2017-09-15T10:08:16.612Z,1004.53
2017-09-15T10:09:16.588Z,1004.48
2017-09-15T10:10:16.580Z,1004.45
2017-09-15T10:11:16.561Z,1004.46
2017-09-15T10:12:16.546Z,1004.48
2017-09-15T10:13:16.519Z,1004.49
2017-09-15T10:14:16.506Z,1004.48
2017-09-15T10:15:16.486Z,1004.43
2017-09-15T10:16:16.532Z,1004.39
2017-09-15T10:17:16.469Z,1004.43
2017-09-15T10:18:16.438Z,1004.38
2017-09-15T10:19:16.420Z,1004.37
2017-09-15T10:20:16.403Z,1004.38
2017-09-15T10:21:16.390Z,1004.38
2017-09-15T10:22:16.373Z,1004.43
2017-09-15T10:23:16.355Z,1004.43
2017-09-15T10:24:16.349Z,1004.38
2017-09-15T10:25:16.329Z,1004.39
2017-09-15T10:26:16.310Z,1004.36
2017-09-15T10:27:16.287Z,1004.4
2017-09-15T10:28:16.271Z,1004.42
2017-09-15T10:29:16.256Z,1004.4
2017-09-15T10:30:16.239Z,1004.39
2017-09-15T10:31:16.227Z,1004.42
2017-09-15T10:32:16.209Z,1004.4
2017-09-15T10:33:16.193Z,1004.42
2017-09-15T10:34:16.179Z,1004.44
2017-09-15T10:35:16.160Z,1004.42
2017-09-15T10:36:16.141Z,1004.45
2017-09-15T10:37:16.137Z,1004.47
2017-09-15T10:38:16.129Z,1004.47
2017-09-15T10:39:16.103Z,1004.46
2017-09-15T10:40:16.088Z,1004.4
2017-09-15T10:41:16.072Z,1004.44
2017-09-15T10:42:16.059Z,1004.43
2017-09-15T10:43:16.043Z,1004.46
2017-09-15T10:44:16.029Z,1004.48
2017-09-15T10:45:16.024Z,1004.38
2017-09-15T10:46:16.003Z,1004.36
2017-09-15T10:47:15.991Z,1004.34
2017-09-15T10:48:15.972Z,1004.39
2017-09-15T10:49:15.964Z,1004.4
2017-09-15T10:50:15.951Z,1004.4
2017-09-15T10:51:15.933Z,1004.39
2017-09-15T10:52:15.924Z,1004.39
2017-09-15T10:53:15.912Z,1004.36
2017-09-15T10:54:15.895Z,1004.31
2017-09-15T10:55:15.887Z,1004.36
2017-09-15T10:56:15.871Z,1004.34
2017-09-15T10:57:15.864Z,1004.32
2017-09-15T10:58:15.839Z,1004.34
2017-09-15T10:59:15.829Z,1004.32
2017-09-15T11:00:15.816Z,1004.32
2017-09-15T11:01:15.905Z,1004.3
2017-09-15T11:02:15.788Z,1004.32
2017-09-15T11:03:15.818Z,1004.3
2017-09-15T11:04:15.769Z,1004.27
2017-09-15T11:05:15.789Z,1004.25
2017-09-15T11:06:15.739Z,1004.29
2017-09-15T11:07:15.730Z,1004.24
2017-09-15T11:08:15.712Z,1004.21
2017-09-15T11:09:15.709Z,1004.28
2017-09-15T11:10:15.685Z,1004.22
2017-09-15T11:11:15.677Z,1004.22
2017-09-15T11:12:15.659Z,1004.24
2017-09-15T11:13:15.648Z,1004.2
2017-09-15T11:14:15.637Z,1004.24
2017-09-15T11:15:15.619Z,1004.23
2017-09-15T11:16:15.605Z,1004.21
2017-09-15T11:17:15.588Z,1004.19
2017-09-15T11:18:15.579Z,1004.21
2017-09-15T11:19:15.567Z,1004.29
2017-09-15T11:20:15.551Z,1004.18
2017-09-15T11:21:15.533Z,1004.2
2017-09-15T11:22:15.519Z,1004.2
2017-09-15T11:23:15.502Z,1004.17
2017-09-15T11:24:15.486Z,1004.17
2017-09-15T11:25:15.468Z,1004.12
2017-09-15T11:26:15.455Z,1004.14
2017-09-15T11:27:15.443Z,1004.14
2017-09-15T11:28:15.426Z,1004.21
2017-09-15T11:29:15.408Z,1004.15
2017-09-15T11:30:15.407Z,1004.15
2017-09-15T11:31:15.377Z,1004.15
2017-09-15T11:32:15.359Z,1004.12
2017-09-15T11:33:15.339Z,1004.13
2017-09-15T11:34:15.334Z,1004.14
2017-09-15T11:35:15.311Z,1004.11
2017-09-15T11:36:15.288Z,1004.16
2017-09-15T11:37:15.272Z,1004.14
2017-09-15T11:38:15.270Z,1004.09
2017-09-15T11:39:15.251Z,1004.11
2017-09-15T11:40:15.226Z,1004.12
2017-09-15T11:41:15.210Z,1004.1
2017-09-15T11:42:15.198Z,1004.1
2017-09-15T11:43:15.173Z,1004.06
2017-09-15T11:44:15.157Z,1004.11
2017-09-15T11:45:15.148Z,1004.07
2017-09-15T11:46:15.140Z,1004.09
2017-09-15T11:47:15.115Z,1004.04
2017-09-15T11:48:15.096Z,1004.07
2017-09-15T11:49:15.089Z,1004.07
2017-09-15T11:50:15.061Z,1004.04
2017-09-15T11:51:15.045Z,1003.98
2017-09-15T11:52:15.028Z,1004.01
2017-09-15T11:53:15.023Z,1003.97
2017-09-15T11:54:14.997Z,1004.01
2017-09-15T11:55:14.986Z,1004.05
2017-09-15T11:56:14.969Z,1004.01
2017-09-15T11:57:14.962Z,1003.99
2017-09-15T11:58:14.937Z,1003.95
2017-09-15T11:59:14.938Z,1003.93
2017-09-15T12:00:14.908Z,1003.9
2017-09-15T12:01:14.902Z,1003.96
2017-09-15T12:02:14.879Z,1003.92
2017-09-15T12:03:14.869Z,1003.93
2017-09-15T12:04:14.849Z,1003.94
2017-09-15T12:05:14.839Z,1003.93
2017-09-15T12:06:14.819Z,1003.89
2017-09-15T12:07:14.808Z,1003.96
2017-09-15T12:08:14.790Z,1003.92